Time;durP1;ratioP1;P1;durP2;ratioP2;P2;SDS_P1;SDS_P2;PMS_P1;PMS_P2;Temp;Humidity;BMP_temperature;BMP_pressure;BME280_temperature;BME280_humidity;BME280_pressure;Samples;Min_cycle;Max_cycle;Signal;HPM_P1;HPM_P2
2023/03/21 00:01:58;;;;;;;5.97;3.47;;;8.80;58.80;;;4.01;100.00;95718.56;5011816;28;20495;-52
2023/03/21 00:04:26;;;;;;;6.07;3.13;;;8.70;59.00;;;3.97;100.00;95720.00;4998846;28;20032;-48
2023/03/21 00:06:52;;;;;;;5.10;3.90;;;8.70;59.20;;;3.93;100.00;95719.66;5012608;28;20376;-49
2023/03/21 00:09:20;;;;;;;6.50;3.92;;;8.60;59.20;;;3.90;100.00;95714.00;4993123;28;20026;-47
2023/03/21 00:11:47;;;;;;;5.70;4.10;;;8.60;59.40;;;3.87;100.00;95714.44;5009586;28;20037;-48
2023/03/21 00:14:18;;;;;;;4.07;3.50;;;8.50;59.50;;;3.89;100.00;95712.41;5012787;28;20025;-47
2023/03/21 00:16:49;;;;;;;4.65;3.08;;;8.50;59.60;;;3.86;100.00;95712.84;5011893;28;20025;-48
2023/03/21 00:19:19;;;;;;;6.88;2.75;;;8.50;59.70;;;3.84;100.00;95713.06;5012632;28;20044;-47
2023/03/21 00:21:46;;;;;;;3.28;2.80;;;8.50;59.80;;;3.80;100.00;95713.72;5010756;28;20021;-48
2023/03/21 00:24:12;;;;;;;4.13;3.15;;;8.50;59.80;;;3.78;100.00;95700.75;4992874;28;20128;-48
2023/03/21 00:26:38;;;;;;;4.90;3.30;;;8.40;59.80;;;3.78;100.00;95702.59;5009352;28;20094;-48
2023/03/21 00:29:04;;;;;;;4.32;3.10;;;8.40;59.90;;;3.75;100.00;95697.75;5011334;28;20527;-48
2023/03/21 00:31:30;;;;;;;6.47;3.10;;;8.50;60.00;;;3.72;100.00;95694.53;5012648;28;20361;-49
2023/03/21 00:33:56;;;;;;;4.03;2.70;;;8.40;60.00;;;3.71;100.00;95692.91;5011450;28;20044;-48
2023/03/21 00:36:24;;;;;;;5.95;3.03;;;8.40;60.00;;;3.70;100.00;95680.78;5012025;28;20024;-48
2023/03/21 00:38:50;;;;;;;4.00;2.85;;;8.40;60.10;;;3.67;100.00;95681.22;5012253;28;20102;-53
2023/03/21 00:41:16;;;;;;;3.50;2.45;;;8.40;60.10;;;3.64;100.00;95679.00;5011021;28;20476;-51
2023/03/21 00:43:42;;;;;;;5.40;2.97;;;8.40;61.00;;;3.62;100.00;95674.97;5011993;28;20103;-53
2023/03/21 00:46:08;;;;;;;4.18;3.17;;;8.30;60.10;;;3.61;100.00;95683.91;5007239;28;20025;-52
2023/03/21 00:48:34;;;;;;;4.05;3.00;;;8.30;60.10;;;3.53;100.00;95674.44;4992444;28;20026;-49
2023/03/21 00:51:00;;;;;;;4.35;2.80;;;8.30;60.10;;;3.48;100.00;95680.38;4992536;28;20479;-49
2023/03/21 00:53:28;;;;;;;4.70;3.38;;;8.20;60.20;;;3.51;100.00;95680.97;5005231;28;20063;-51
2023/03/21 00:55:54;;;;;;;3.67;2.70;;;8.20;60.20;;;3.42;100.00;95689.16;5011822;28;20029;-49
2023/03/21 00:58:20;;;;;;;4.25;2.63;;;8.20;60.30;;;3.38;100.00;95689.78;5010380;28;20025;-53
2023/03/21 01:00:46;;;;;;;4.40;2.58;;;8.10;60.20;;;3.36;100.00;95687.38;4995487;28;20025;-50
2023/03/21 01:03:15;;;;;;;5.35;3.08;;;8.10;60.30;;;3.34;100.00;95686.00;4992712;28;20022;-50
2023/03/21 01:06:05;;;;;;;5.57;3.28;;;8.10;60.60;;;3.30;100.00;95679.53;5008495;28;20029;-53
2023/03/21 01:08:40;;;;;;;3.65;2.80;;;8.00;60.50;;;3.25;100.00;95680.19;5011546;28;20468;-53
2023/03/21 01:11:14;;;;;;;3.25;2.72;;;8.00;60.60;;;3.21;100.00;95677.19;5010552;28;20057;-51
2023/03/21 01:13:40;;;;;;;4.90;2.83;;;7.90;60.60;;;3.17;100.00;95677.84;5014189;28;20033;-54
2023/03/21 01:16:08;;;;;;;3.60;2.80;;;7.90;60.60;;;3.14;100.00;95676.44;5014629;28;20017;-50
2023/03/21 01:18:39;;;;;;;6.10;2.90;;;7.90;60.70;;;3.11;100.00;95673.44;4998691;28;20048;-51
2023/03/21 01:21:13;;;;;;;3.47;2.72;;;7.90;60.70;;;3.08;100.00;95673.88;4996738;28;20028;-52
2023/03/21 01:23:42;;;;;;;4.60;2.88;;;7.80;60.70;;;3.00;100.00;95670.47;5014264;28;20467;-54
2023/03/21 01:26:11;;;;;;;7.68;2.70;;;7.70;60.70;;;3.00;100.00;95677.56;5015372;28;20434;-51
2023/03/21 01:28:42;;;;;;;5.50;2.85;;;7.70;60.80;;;2.97;100.00;95668.25;4995911;28;20112;-51
2023/03/21 01:31:13;;;;;;;4.72;3.00;;;7.70;61.70;;;2.89;100.00;95660.66;4995381;28;20026;-52
2023/03/21 01:33:40;;;;;;;4.50;3.05;;;7.70;61.70;;;2.88;100.00;95666.91;4994727;28;20531;-56
2023/03/21 01:36:08;;;;;;;3.83;2.60;;;7.60;61.00;;;2.86;100.00;95666.34;5006729;28;20025;-52
2023/03/21 01:38:34;;;;;;;3.10;2.70;;;7.60;61.00;;;2.84;100.00;95657.84;5014971;28;20033;-50
2023/03/21 01:41:01;;;;;;;3.60;2.60;;;7.60;61.10;;;2.84;100.00;95657.84;5011763;28;20025;-49
2023/03/21 01:43:35;;;;;;;3.38;2.47;;;7.50;61.10;;;2.80;100.00;95663.75;4995680;28;20500;-49
2023/03/21 01:46:53;;;;;;;3.05;2.42;;;7.50;61.30;;;2.72;100.00;95651.66;4994751;28;20128;-53
2023/03/21 01:49:37;;;;;;;4.15;3.22;;;7.50;61.30;;;2.66;100.00;95653.28;4987267;28;20041;-49
2023/03/21 01:52:11;;;;;;;4.88;2.83;;;7.40;61.30;;;2.62;100.00;95651.31;5003210;28;20415;-52
2023/03/21 01:54:42;;;;;;;4.38;2.80;;;7.40;61.40;;;2.55;100.00;95654.78;5000968;28;20036;-49
2023/03/21 01:57:40;;;;;;;3.92;3.03;;;7.30;61.30;;;2.51;100.00;95658.06;5012561;28;20116;-50
2023/03/21 02:00:11;;;;;;;5.25;3.00;;;7.30;61.40;;;2.53;100.00;95656.81;5020125;28;20095;-50
2023/03/21 02:02:49;;;;;;;2.95;2.63;;;7.30;61.50;;;2.53;100.00;95653.41;5001117;28;20049;-53
2023/03/21 02:05:38;;;;;;;6.22;3.10;;;7.20;62.30;;;2.46;100.00;95660.53;5011274;28;20037;-52
2023/03/21 02:08:05;;;;;;;7.28;3.53;;;7.20;61.60;;;2.40;100.00;95648.22;5016248;28;20041;-50
2023/03/21 02:10:32;;;;;;;5.07;3.78;;;7.20;61.50;;;2.40;100.00;95649.03;5010754;28;20037;-50
2023/03/21 02:13:09;;;;;;;5.78;4.18;;;7.20;61.60;;;2.36;100.00;95655.72;5002096;28;20358;-49
2023/03/21 02:15:55;;;;;;;6.95;4.50;;;7.10;61.80;;;2.32;100.00;95646.66;5007994;28;20264;-52
2023/03/21 02:18:51;;;;;;;7.40;4.25;;;7.10;61.80;;;2.30;100.00;95644.22;5006309;28;20025;-52
2023/03/21 02:22:00;;;;;;;6.10;4.25;;;7.10;61.90;;;2.31;100.00;95643.19;5006462;28;20029;-52
2023/03/21 02:25:27;;;;;;;5.60;4.18;;;7.10;62.00;;;2.28;100.00;95637.56;5005003;28;20017;-50
2023/03/21 02:28:30;;;;;;;7.82;4.50;;;7.00;62.00;;;2.25;100.00;95632.72;4995049;28;20040;-49
2023/03/21 02:31:55;;;;;;;7.32;4.90;;;7.00;62.00;;;2.19;100.00;95626.47;5001875;28;20048;-56
2023/03/21 02:35:17;;;;;;;7.40;4.22;;;6.90;62.00;;;2.12;100.00;95623.09;5007486;28;20377;-52
2023/03/21 02:38:05;;;;;;;6.38;4.13;;;6.90;62.10;;;2.11;100.00;95632.00;4995582;28;20017;-49
2023/03/21 02:41:00;;;;;;;6.78;4.75;;;6.80;62.10;;;2.10;100.00;95625.16;5008903;28;20029;-50
2023/03/21 02:44:16;;;;;;;6.95;4.25;;;6.80;62.20;;;2.04;100.00;95618.91;4993166;28;20147;-50
2023/03/21 02:47:05;;;;;;;6.57;4.60;;;6.90;62.20;;;2.00;100.00;95616.88;5001204;28;20040;-53
2023/03/21 02:49:53;;;;;;;7.75;4.70;;;6.80;62.20;;;2.00;100.00;95625.56;5000701;28;20033;-49
2023/03/21 02:52:30;;;;;;;6.85;4.53;;;6.80;62.30;;;2.00;100.00;95625.56;5003479;28;20376;-52
2023/03/21 02:55:03;;;;;;;8.65;4.60;;;6.70;62.40;;;1.99;100.00;95626.59;5004256;28;20034;-52
2023/03/21 02:57:32;;;;;;;7.45;4.60;;;6.70;62.40;;;1.93;100.00;95622.19;5007095;28;20485;-52
2023/03/21 03:00:00;;;;;;;7.15;4.97;;;6.70;62.30;;;1.90;100.00;95627.03;5002255;28;20079;-51
2023/03/21 03:02:29;;;;;;;7.72;5.50;;;6.70;62.40;;;1.88;100.00;95629.91;4999225;28;20499;-50
2023/03/21 03:04:55;;;;;;;8.63;4.97;;;6.70;62.50;;;1.91;100.00;95628.66;5010804;28;20037;-51
2023/03/21 03:08:17;;;;;;;8.98;5.35;;;6.70;62.50;;;1.84;100.00;95621.59;4999927;28;20017;-50
2023/03/21 03:11:17;;;;;;;6.03;4.70;;;6.70;62.60;;;1.82;100.00;95626.28;4936366;28;20046;-49
2023/03/21 03:13:56;;;;;;;8.60;4.95;;;6.60;62.50;;;1.78;100.00;95619.81;4931202;28;20047;-49
2023/03/21 03:16:29;;;;;;;8.77;5.53;;;6.60;62.60;;;1.79;100.00;95629.31;4998585;28;20059;-49
2023/03/21 03:19:02;;;;;;;10.00;6.03;;;6.60;62.60;;;1.80;100.00;95624.88;5011620;28;20455;-49
2023/03/21 03:21:55;;;;;;;10.40;6.15;;;6.60;62.80;;;1.77;100.00;95628.72;5013182;28;20033;-49
2023/03/21 03:25:04;;;;;;;12.90;5.65;;;6.50;62.90;;;1.78;100.00;95619.81;4990543;28;20053;-50
2023/03/21 03:27:41;;;;;;;10.95;7.35;;;6.50;62.90;;;1.79;100.00;95613.56;5004185;28;20125;-49
2023/03/21 03:30:11;;;;;;;11.73;7.25;;;6.50;63.00;;;1.79;100.00;95615.38;5001166;28;20111;-57
2023/03/21 03:32:58;;;;;;;11.27;6.65;;;6.50;63.10;;;1.80;100.00;95614.38;5020136;28;20037;-49
2023/03/21 03:35:26;;;;;;;14.88;7.57;;;6.50;63.30;;;1.81;100.00;95615.97;5000203;28;20524;-49
2023/03/21 03:38:01;;;;;;;13.15;7.57;;;6.50;63.20;;;1.81;100.00;95621.22;5011890;28;20036;-49
2023/03/21 03:40:45;;;;;;;11.13;6.78;;;6.50;63.40;;;1.79;100.00;95625.91;5010779;28;20143;-53
2023/03/21 03:43:25;;;;;;;11.40;6.60;;;6.60;63.50;;;1.80;100.00;95624.88;5024422;28;20037;-51
2023/03/21 03:46:15;;;;;;;9.15;6.28;;;6.50;63.40;;;1.77;100.00;95620.84;5009520;28;20049;-49
2023/03/21 03:49:03;;;;;;;9.65;6.20;;;6.60;63.50;;;1.75;100.00;95628.09;5010683;28;20473;-52
2023/03/21 03:51:57;;;;;;;10.35;6.35;;;6.50;63.40;;;1.72;100.00;95623.25;5016187;28;20033;-49
2023/03/21 03:54:42;;;;;;;11.43;6.35;;;6.50;63.40;;;1.70;100.00;95616.63;5006271;28;20025;-49
2023/03/21 03:57:12;;;;;;;10.80;5.72;;;6.50;63.40;;;1.67;100.00;95619.66;5022427;28;20057;-49
2023/03/21 03:59:44;;;;;;;8.60;5.70;;;6.50;63.30;;;1.64;100.00;95617.47;5000537;28;20116;-54
2023/03/21 04:02:10;;;;;;;12.30;6.95;;;6.50;63.40;;;1.62;100.00;95620.28;4991785;28;20028;-55
2023/03/21 04:04:37;;;;;;;13.07;7.00;;;6.40;63.30;;;1.60;100.00;95615.25;5005386;28;20035;-49
2023/03/21 04:07:05;;;;;;;10.05;6.65;;;6.40;63.40;;;1.60;100.00;95619.69;5004610;28;20461;-52
2023/03/21 04:09:32;;;;;;;14.57;7.10;;;6.40;63.50;;;1.58;100.00;95624.34;5006508;28;20469;-49
2023/03/21 04:11:58;;;;;;;11.55;6.28;;;6.40;63.50;;;1.55;100.00;95615.06;5009912;28;20053;-50
2023/03/21 04:14:25;;;;;;;8.38;5.57;;;6.40;63.50;;;1.53;100.00;95619.69;5001735;28;20045;-49
2023/03/21 04:16:51;;;;;;;11.15;6.82;;;6.40;63.60;;;1.51;100.00;95613.88;5003968;28;20104;-49
2023/03/21 04:19:18;;;;;;;9.40;5.45;;;6.40;63.60;;;1.49;100.00;95613.25;5001093;28;20046;-51
2023/03/21 04:21:45;;;;;;;10.57;6.65;;;6.30;63.60;;;1.49;100.00;95612.44;5005943;28;20043;-51
2023/03/21 04:24:12;;;;;;;10.77;5.95;;;6.30;63.70;;;1.54;100.00;95612.66;5009652;28;20029;-52
2023/03/21 04:26:40;;;;;;;7.50;5.43;;;6.30;63.80;;;1.57;100.00;95609.59;5002248;28;20017;-56
2023/03/21 04:29:06;;;;;;;10.48;6.03;;;6.30;63.90;;;1.54;100.00;95612.66;5003167;28;20505;-49
2023/03/21 04:31:34;;;;;;;9.80;5.90;;;6.30;63.90;;;1.54;100.00;95610.81;5008455;28;20520;-50
2023/03/21 04:34:08;;;;;;;9.43;5.85;;;6.30;63.90;;;1.53;100.00;95613.63;5005970;28;20029;-49
2023/03/21 04:36:45;;;;;;;9.25;6.18;;;6.30;64.00;;;1.53;100.00;95611.00;5006972;28;20451;-50
2023/03/21 04:39:12;;;;;;;9.82;6.25;;;6.30;64.00;;;1.50;100.00;95611.44;4998184;28;20031;-49
2023/03/21 04:41:41;;;;;;;12.70;5.80;;;6.30;64.10;;;1.52;100.00;95612.03;5003318;28;20036;-57
2023/03/21 04:44:10;;;;;;;8.90;5.70;;;6.30;64.10;;;1.52;100.00;95612.03;5010842;28;20029;-50
2023/03/21 04:46:37;;;;;;;9.93;5.40;;;6.30;64.20;;;1.51;100.00;95615.69;5006118;28;20057;-50
2023/03/21 04:49:05;;;;;;;9.63;6.05;;;6.30;64.20;;;1.54;100.00;95617.91;5014678;28;20025;-49
2023/03/21 04:51:33;;;;;;;8.15;5.57;;;6.30;64.30;;;1.52;100.00;95618.09;5009978;28;20021;-51
2023/03/21 04:53:59;;;;;;;9.50;5.38;;;6.20;64.30;;;1.52;100.00;95620.72;5013579;28;20037;-50
2023/03/21 04:56:32;;;;;;;7.40;4.90;;;6.30;64.30;;;1.49;100.00;95612.44;5010541;28;20049;-54
2023/03/21 04:59:05;;;;;;;13.52;5.30;;;6.30;64.30;;;1.49;100.00;95607.19;5008945;28;20463;-53
2023/03/21 05:01:31;;;;;;;7.50;5.20;;;6.30;64.30;;;1.50;100.00;95616.69;5009945;28;20021;-49
2023/03/21 05:04:03;;;;;;;7.38;4.78;;;6.30;64.30;;;1.50;100.00;95606.19;5005451;28;20035;-52
2023/03/21 05:06:30;;;;;;;8.20;5.68;;;6.30;64.40;;;1.46;100.00;95607.63;5013175;28;20642;-50
2023/03/21 05:09:00;;;;;;;9.75;5.40;;;6.20;64.30;;;1.46;100.00;95605.00;5012284;28;20037;-49
2023/03/21 05:11:29;;;;;;;7.28;5.30;;;6.20;64.40;;;1.44;100.00;95605.19;5001523;28;20037;-59
2023/03/21 05:13:56;;;;;;;8.40;5.95;;;6.20;64.40;;;1.43;100.00;95598.31;5005110;28;20037;-59
2023/03/21 05:16:25;;;;;;;9.40;5.70;;;6.20;64.40;;;1.41;100.00;95599.53;5007473;28;20022;-59
2023/03/21 05:18:53;;;;;;;10.23;5.97;;;6.20;64.40;;;1.45;100.00;95604.19;5011179;28;20495;-59
2023/03/21 05:21:21;;;;;;;7.93;5.50;;;6.20;64.50;;;1.52;100.00;95601.53;4997546;28;20017;-59
2023/03/21 05:23:53;;;;;;;13.05;5.55;;;6.30;65.50;;;1.52;100.00;95604.97;5002033;28;20052;-56
2023/03/21 05:26:21;;;;;;;10.07;5.75;;;6.20;64.60;;;1.49;100.00;95597.50;5005312;28;20017;-58
2023/03/21 05:28:48;;;;;;;9.50;5.35;;;6.30;64.60;;;1.49;100.00;95600.13;5000504;28;20392;-58
2023/03/21 05:31:16;;;;;;;7.25;5.22;;;6.30;64.70;;;1.52;100.00;95599.72;5008231;28;20045;-52
2023/03/21 05:33:45;;;;;;;8.90;6.18;;;6.30;64.70;;;1.56;100.00;95597.47;5003144;28;20017;-54
2023/03/21 05:36:12;;;;;;;9.43;5.55;;;6.30;64.80;;;1.57;100.00;95601.72;5014190;28;20102;-58
2023/03/21 05:38:41;;;;;;;7.00;4.85;;;6.30;64.70;;;1.55;100.00;95598.50;5010250;28;20040;-55
2023/03/21 05:41:07;;;;;;;8.55;5.40;;;6.30;64.70;;;1.54;100.00;95600.31;5007931;28;20029;-58
2023/03/21 05:43:33;;;;;;;7.80;5.28;;;6.30;64.70;;;1.60;100.00;95606.56;5009638;28;20040;-59
2023/03/21 05:45:59;;;;;;;9.30;5.57;;;6.40;64.70;;;1.60;100.00;95604.75;5007446;28;20033;-55
2023/03/21 05:48:25;;;;;;;8.70;5.63;;;6.40;64.70;;;1.57;100.00;95604.34;5009758;28;20439;-56
2023/03/21 05:50:53;;;;;;;7.97;5.43;;;6.40;64.60;;;1.55;100.00;95609.81;5008668;28;20040;-57
2023/03/21 05:53:19;;;;;;;8.88;5.63;;;6.40;64.70;;;1.58;100.00;95616.47;5007726;28;20055;-55
2023/03/21 05:55:44;;;;;;;10.68;6.18;;;6.50;64.70;;;1.62;100.00;95610.56;5003831;28;20040;-57
2023/03/21 05:58:10;;;;;;;9.63;5.45;;;6.50;64.60;;;1.69;100.00;95617.63;5011242;28;20116;-56
2023/03/21 06:00:36;;;;;;;10.65;5.65;;;6.60;64.70;;;1.74;100.00;95612.56;5013701;28;20760;-55
2023/03/21 06:03:02;;;;;;;13.27;6.20;;;6.60;64.70;;;1.80;100.00;95609.91;5003262;28;20017;-55
2023/03/21 06:05:29;;;;;;;9.30;6.35;;;6.70;64.80;;;1.85;100.00;95619.81;5012838;28;20041;-59
2023/03/21 06:07:55;;;;;;;8.90;5.88;;;6.70;64.80;;;1.91;100.00;95610.25;5005870;28;20026;-56
2023/03/21 06:10:20;;;;;;;10.98;6.65;;;6.80;64.90;;;1.89;100.00;95612.31;5001354;28;20055;-57
2023/03/21 06:12:47;;;;;;;11.35;6.10;;;6.80;64.80;;;1.90;100.00;95611.28;5012133;28;20032;-59
2023/03/21 06:15:13;;;;;;;9.23;5.78;;;6.90;64.90;;;1.94;100.00;95615.91;5011917;28;20438;-58
2023/03/21 06:17:39;;;;;;;11.40;6.45;;;7.00;64.80;;;2.01;100.00;95610.63;5004514;28;20079;-55
2023/03/21 06:20:08;;;;;;;9.60;6.38;;;7.00;64.80;;;2.06;100.00;95611.59;5003400;28;20025;-58
2023/03/21 06:22:34;;;;;;;10.77;6.57;;;7.00;64.80;;;2.12;100.00;95612.59;5000562;28;20017;-58
2023/03/21 06:25:02;;;;;;;10.15;6.43;;;7.10;65.60;;;2.17;100.00;95615.41;5013500;28;20064;-59
2023/03/21 06:27:28;;;;;;;11.27;5.82;;;7.10;64.80;;;2.24;100.00;95615.34;5004260;28;20017;-55
2023/03/21 06:29:54;;;;;;;15.82;7.45;;;7.10;64.80;;;2.27;100.00;95617.56;5002790;28;20101;-54
2023/03/21 06:32:20;;;;;;;16.55;7.00;;;7.30;64.90;;;2.33;100.00;95621.19;5009498;28;20030;-56
2023/03/21 06:34:46;;;;;;;15.57;7.05;;;7.30;64.90;;;2.37;100.00;95620.53;5007385;28;20506;-56
2023/03/21 06:37:11;;;;;;;16.42;6.40;;;7.40;64.90;;;2.47;100.00;95626.13;5012806;28;20049;-57
2023/03/21 06:39:37;;;;;;;7.68;6.22;;;7.40;64.90;;;2.57;100.00;95632.72;5011401;28;20392;-55
2023/03/21 06:42:03;;;;;;;11.32;6.70;;;7.50;64.90;;;2.70;100.00;95624.78;5003165;28;20025;-56
2023/03/21 06:44:29;;;;;;;12.10;7.15;;;7.70;65.00;;;2.83;100.00;95622.03;5006949;28;20029;-55
2023/03/21 06:46:55;;;;;;;10.13;6.28;;;7.80;65.00;;;2.98;100.00;95624.34;5005165;28;20075;-55
2023/03/21 06:49:21;;;;;;;12.13;6.35;;;8.00;65.20;;;3.11;100.00;95626.84;4999795;28;20116;-58
2023/03/21 06:51:47;;;;;;;8.55;6.10;;;8.10;65.20;;;3.21;100.00;95627.16;5012189;28;20056;-52
2023/03/21 06:54:14;;;;;;;11.45;6.50;;;8.30;65.20;;;3.36;100.00;95626.03;5006966;28;20065;-57
2023/03/21 06:56:40;;;;;;;9.70;6.63;;;8.50;65.20;;;3.56;100.00;95633.72;5006983;28;20029;-57
2023/03/21 06:59:07;;;;;;;10.52;7.13;;;8.70;65.20;;;3.84;100.00;95635.84;5000977;28;20025;-55
2023/03/21 07:01:33;;;;;;;9.80;6.95;;;9.00;65.30;;;4.20;100.00;95631.53;5012475;28;20025;-58
2023/03/21 07:03:59;;;;;;;9.27;6.63;;;9.40;65.60;;;4.61;100.00;95644.75;5026656;28;20029;-54
2023/03/21 07:06:26;;;;;;;5.97;4.65;;;9.80;65.30;;;5.01;100.00;95638.06;5006704;28;20029;-55
2023/03/21 07:08:54;;;;;;;6.90;4.65;;;10.40;65.20;;;5.40;100.00;95627.88;5007836;28;20045;-58
2023/03/21 07:11:22;;;;;;;4.30;3.40;;;10.90;65.00;;;5.87;100.00;95630.47;4994738;28;20038;-58
2023/03/21 07:13:49;;;;;;;3.80;3.20;;;11.40;64.50;;;6.29;100.00;95632.88;5007462;28;20041;-52
2023/03/21 07:16:20;;;;;;;4.10;2.83;;;12.00;64.00;;;6.74;100.00;95632.91;5010696;28;20019;-49
2023/03/21 07:18:46;;;;;;;3.22;2.92;;;12.50;63.20;;;7.26;100.00;95631.88;5011279;28;20025;-49
2023/03/21 07:21:13;;;;;;;4.47;2.80;;;13.10;62.40;;;7.73;95.78;95629.63;5007678;28;20044;-49
2023/03/21 07:23:40;;;;;;;4.28;2.88;;;13.70;61.70;;;8.11;91.46;95631.44;5010970;28;20037;-49
2023/03/21 07:26:06;;;;;;;3.33;2.30;;;14.30;60.80;;;8.62;90.30;95627.75;5007452;28;20587;-49
2023/03/21 07:28:32;;;;;;;2.33;2.13;;;14.80;59.80;;;9.10;88.21;95634.84;5009290;28;20045;-50
2023/03/21 07:31:05;;;;;;;3.90;2.50;;;15.30;59.20;;;9.40;83.17;95633.47;5006457;28;20051;-50
2023/03/21 07:33:33;;;;;;;3.10;2.50;;;15.80;58.20;;;9.67;80.92;95625.41;5007825;28;20415;-50
2023/03/21 07:36:00;;;;;;;2.85;2.55;;;16.20;57.60;;;9.82;78.89;95625.50;5008505;28;20029;-49
2023/03/21 07:38:29;;;;;;;3.50;2.40;;;16.40;56.90;;;9.98;77.96;95621.03;5004483;28;20025;-48
2023/03/21 07:40:57;;;;;;;3.30;2.50;;;16.60;56.30;;;10.15;75.98;95626.16;5011131;28;20490;-49
2023/03/21 07:43:23;;;;;;;3.80;2.60;;;16.80;55.70;;;10.31;75.65;95619.06;5007384;28;20404;-49
2023/03/21 07:45:49;;;;;;;3.88;3.20;;;17.00;55.10;;;10.48;76.17;95624.97;5007907;28;20022;-49
2023/03/21 07:48:16;;;;;;;5.90;2.63;;;17.20;54.70;;;10.67;73.71;95624.50;5012005;28;20033;-51
2023/03/21 07:50:42;;;;;;;2.97;2.47;;;17.30;54.30;;;10.84;71.43;95630.38;5006806;28;20028;-51
2023/03/21 07:53:08;;;;;;;3.92;2.30;;;17.40;53.90;;;10.93;70.70;95625.31;5010822;28;20021;-51
2023/03/21 07:55:35;;;;;;;2.70;2.25;;;17.50;53.50;;;11.03;70.91;95628.00;5004574;28;20492;-50
2023/03/21 07:58:03;;;;;;;2.58;2.20;;;17.70;53.00;;;11.37;69.65;95622.13;5004774;28;20164;-49
2023/03/21 08:00:30;;;;;;;3.53;2.80;;;17.90;53.20;;;11.62;68.22;95626.63;5003367;28;20120;-51
2023/03/21 08:02:58;;;;;;;2.55;2.35;;;18.20;52.20;;;11.83;66.15;95620.19;5011262;28;20041;-49
2023/03/21 08:05:32;;;;;;;3.33;2.42;;;18.40;51.70;;;12.04;65.61;95621.75;5006116;28;20056;-50
2023/03/21 08:07:58;;;;;;;3.83;2.53;;;18.80;51.20;;;12.42;65.07;95624.00;5007572;28;20480;-49
2023/03/21 08:10:24;;;;;;;4.03;2.33;;;19.00;50.90;;;12.74;63.69;95621.66;4998733;28;20029;-49
2023/03/21 08:12:50;;;;;;;3.83;2.40;;;19.40;50.40;;;13.02;62.17;95622.03;5011797;28;20112;-49
2023/03/21 08:15:17;;;;;;;3.03;2.30;;;19.70;49.80;;;13.42;61.75;95618.25;5010283;28;20124;-49
2023/03/21 08:17:46;;;;;;;2.47;2.28;;;19.90;49.10;;;13.67;58.32;95624.47;5003677;28;20021;-49
2023/03/21 08:20:20;;;;;;;3.40;2.47;;;20.20;48.50;;;13.84;57.56;95615.97;5007742;28;20083;-49
2023/03/21 08:22:49;;;;;;;2.35;2.10;;;20.50;47.80;;;14.15;57.15;95618.31;5013710;28;20056;-50
2023/03/21 08:25:19;;;;;;;4.30;2.30;;;20.80;47.40;;;14.23;55.84;95617.72;5016106;28;20086;-49
2023/03/21 08:27:47;;;;;;;2.45;2.25;;;21.10;46.90;;;14.41;55.61;95618.81;5012472;28;20045;-49
2023/03/21 08:30:19;;;;;;;3.25;2.25;;;21.40;46.20;;;14.49;55.04;95616.28;5015268;28;20068;-53
2023/03/21 08:32:45;;;;;;;2.65;2.45;;;21.60;45.60;;;14.77;54.42;95616.47;5012404;28;20476;-54
2023/03/21 08:35:16;;;;;;;2.92;2.63;;;21.90;45.10;;;14.93;53.28;95617.84;5014468;28;20463;-50
2023/03/21 08:37:43;;;;;;;3.83;2.17;;;22.10;44.50;;;15.16;53.49;95616.16;5024910;28;20125;-50
2023/03/21 08:40:16;;;;;;;2.67;2.45;;;22.30;44.20;;;15.41;53.21;95622.19;5011902;28;20045;-49
2023/03/21 08:42:44;;;;;;;;;;;22.50;43.70;;;15.65;52.18;95611.34;5006726;28;20072;-50
2023/03/21 08:45:12;;;;;;;3.03;2.58;;;22.70;44.30;;;16.01;51.60;95611.47;5015653;28;19928;-55
2023/03/21 08:47:38;;;;;;;2.50;2.30;;;23.10;43.30;;;16.45;51.70;95606.59;5011890;28;20056;-51
2023/03/21 08:50:10;;;;;;;3.88;2.60;;;23.40;42.80;;;16.87;49.64;95614.31;5011812;28;20021;-51
2023/03/21 08:52:36;;;;;;;4.07;3.00;;;23.70;42.00;;;16.79;48.72;95614.22;5014752;28;20119;-50
2023/03/21 08:55:03;;;;;;;3.42;2.90;;;24.00;41.60;;;16.94;49.72;95613.09;5015950;28;20123;-54
2023/03/21 08:57:29;;;;;;;3.20;2.90;;;24.10;41.00;;;16.95;49.27;95610.09;5011727;28;20029;-51
2023/03/21 08:59:55;;;;;;;3.85;3.25;;;24.30;40.70;;;17.09;49.93;95612.75;5014806;28;20022;-50
2023/03/21 09:02:21;;;;;;;4.30;3.90;;;24.40;40.20;;;16.58;50.54;95609.28;5011366;28;20376;-50
2023/03/21 09:04:47;;;;;;;3.67;3.38;;;24.50;39.90;;;16.52;49.36;95604.31;5003259;28;20031;-50
2023/03/21 09:07:16;;;;;;;4.95;3.70;;;24.50;39.30;;;16.57;48.41;95607.66;5009075;28;20022;-52
2023/03/21 09:09:42;;;;;;;3.70;3.15;;;24.50;38.80;;;17.00;48.72;95609.97;5009525;28;20030;-54
2023/03/21 09:12:09;;;;;;;3.90;3.60;;;24.50;38.60;;;16.85;48.66;95605.72;5009387;28;20049;-49
2023/03/21 09:14:35;;;;;;;4.35;3.40;;;24.60;38.50;;;16.92;47.93;95608.00;5015414;28;20056;-49
2023/03/21 09:17:01;;;;;;;3.58;3.20;;;24.60;38.30;;;16.57;48.47;95598.81;5013151;28;20025;-49
2023/03/21 09:19:27;;;;;;;3.78;3.47;;;24.60;38.00;;;16.61;47.78;95599.81;5011471;28;20106;-51
2023/03/21 09:21:54;;;;;;;3.40;3.08;;;24.50;37.70;;;16.78;47.96;95605.38;5013587;28;20115;-52
2023/03/21 09:24:20;;;;;;;4.60;4.03;;;24.40;37.60;;;16.73;47.03;95601.97;5004622;28;20499;-49
2023/03/21 09:26:50;;;;;;;3.55;3.25;;;24.40;37.40;;;16.67;48.08;95603.97;5015065;28;20053;-49
2023/03/21 09:29:22;;;;;;;4.10;3.70;;;24.40;37.10;;;16.52;47.63;95610.47;5012751;28;20025;-50
2023/03/21 09:31:48;;;;;;;3.83;3.42;;;24.40;36.90;;;16.54;47.97;95607.47;5011448;28;20086;-49
2023/03/21 09:34:14;;;;;;;4.85;3.70;;;24.40;37.00;;;16.65;47.91;95612.34;5013030;28;20037;-51
2023/03/21 09:36:43;;;;;;;3.90;3.60;;;24.40;36.80;;;17.02;48.78;95615.06;5010847;28;20052;-50
2023/03/21 09:39:10;;;;;;;5.75;3.42;;;24.40;36.90;;;17.18;48.00;95610.13;5010516;28;20049;-49
2023/03/21 09:42:18;;;;;;;4.22;3.75;;;24.50;36.90;;;16.76;47.38;95612.13;5013990;28;20044;-51
2023/03/21 09:45:29;;;;;;;5.93;3.47;;;24.50;36.30;;;16.86;48.67;95606.56;5015083;28;20032;-50
2023/03/21 09:47:55;;;;;;;3.83;3.53;;;24.40;36.30;;;16.98;48.53;95614.88;5010277;28;20113;-51
2023/03/21 09:50:36;;;;;;;3.80;3.40;;;24.40;36.60;;;16.69;49.03;95612.53;5013853;28;20025;-49
2023/03/21 09:53:37;;;;;;;5.82;3.25;;;24.30;36.40;;;16.41;49.57;95612.56;5005157;28;20025;-50
2023/03/21 09:56:11;;;;;;;4.55;3.40;;;24.20;36.40;;;16.37;50.04;95610.78;5014995;28;20033;-49
2023/03/21 09:58:51;;;;;;;3.83;3.42;;;24.00;36.50;;;16.43;50.56;95607.69;5008419;28;20143;-51
2023/03/21 10:01:48;;;;;;;5.00;3.90;;;23.90;36.60;;;16.32;51.56;95617.06;5013580;28;20095;-49
2023/03/21 10:04:17;;;;;;;5.28;4.15;;;23.80;36.90;;;16.63;50.82;95608.34;5027889;28;20037;-50
2023/03/21 10:06:56;;;;;;;5.05;4.13;;;23.80;37.00;;;16.55;48.85;95604.50;5013094;28;20051;-49
2023/03/21 10:09:27;;;;;;;6.25;3.95;;;23.90;36.80;;;16.40;48.77;95604.81;5009935;28;20020;-49
2023/03/21 10:12:13;;;;;;;6.97;5.18;;;23.80;36.60;;;16.22;49.61;95603.84;5010413;28;20128;-50
2023/03/21 10:14:53;;;;;;;6.88;5.10;;;23.90;36.40;;;16.14;49.86;95597.28;5012596;28;20033;-51
2023/03/21 10:17:40;;;;;;;6.07;5.47;;;23.80;36.30;;;16.05;50.67;95606.34;5005818;28;20021;-49
2023/03/21 10:20:29;;;;;;;7.07;5.38;;;23.80;36.30;;;16.14;50.29;95599.97;5012528;28;20027;-50
2023/03/21 10:22:59;;;;;;;8.52;5.28;;;23.70;36.40;;;16.28;50.24;95599.94;5013610;28;20052;-52
2023/03/21 10:25:52;;;;;;;8.32;5.07;;;23.70;36.60;;;16.25;49.88;95600.53;5010541;28;20028;-49
2023/03/21 10:28:40;;;;;;;6.90;4.88;;;23.70;36.40;;;16.37;49.07;95589.28;5009910;28;20041;-51
2023/03/21 10:31:14;;;;;;;6.57;4.82;;;23.60;36.40;;;16.54;49.61;95594.81;5011756;28;20056;-49
2023/03/21 10:33:47;;;;;;;4.90;4.40;;;23.60;36.60;;;16.55;49.72;95591.06;5013485;28;20424;-49
2023/03/21 10:36:24;;;;;;;5.60;4.95;;;23.70;36.60;;;16.74;49.04;95587.44;5011723;28;20036;-50
2023/03/21 10:39:05;;;;;;;6.18;5.07;;;23.70;36.70;;;16.68;48.49;95588.63;4996997;28;20026;-49
2023/03/21 10:41:33;;;;;;;9.15;4.70;;;23.70;36.40;;;16.81;48.55;95588.63;5001851;28;20056;-50
2023/03/21 10:44:16;;;;;;;6.22;4.78;;;23.70;36.30;;;16.86;48.26;95595.78;5012027;28;20486;-49
2023/03/21 10:47:05;;;;;;;7.43;4.63;;;23.70;36.30;;;16.81;49.46;95595.91;5006429;28;20591;-51